Flight Track Log - Related Links

Times and Time Zones

All times are in EDT time to prevent confusion due to time zone crossing. See the N10JY flight status page for this flight to view local times or setup timezone preferences in your user account.

Time Position Orientation Groundspeed Altitude Reporting Facility
EDT Latitude Longitude Course Direction KTS MPH feet Rate Location/Type
Fri 07:44:44 PM 42.7922 -73.8236 340° North 201 231 3,200  Level Boston Center
Fri 07:46:00 PM 42.7825 -73.9367 263° West 239 275 7,500 3,090 Climbing Boston Center
Fri 07:46:58 PM 42.7892 -74.0414 275° West 258 297 10,100 2,900 Climbing Boston Center
Fri 07:48:00 PM 42.8061 -74.1692 280° West 319 367 13,300 2,927 Climbing Boston Center
Fri 07:49:01 PM 42.8186 -74.3025 277° West 375 432 16,100 1,373 Climbing Boston Center
Fri 07:49:58 PM 42.8367 -74.4675 279° West 404 465 16,000 -51 Descending Boston Center
Fri 07:50:58 PM 42.8508 -74.6008 278° West 412 474 16,000  Level Boston Center
Fri 07:51:59 PM 42.8664 -74.7714 277° West 407 468 16,000  Level Boston Center
Fri 07:53:00 PM 42.8800 -74.9081 278° West 413 475 16,000  Level Boston Center
Fri 07:54:00 PM 42.8933 -75.0617 277° West 408 470 16,000  Level Boston Center
Fri 07:54:58 PM 42.9086 -75.2097 278° West 408 470 16,000  Level Boston Center
Fri 07:56:11 PM 42.9236 -75.3608 278° West 408 470 16,000  Level Boston Center
Fri 07:57:12 PM 42.9397 -75.5403 277° West 408 470 16,000  Level Boston Center
Fri 07:58:12 PM 42.9542 -75.6942 277° West 408 470 16,000  Level Boston Center
Fri 07:59:10 PM 42.9706 -75.8428 279° West 408 470 16,000  Level Boston Center
Fri 08:00:10 PM 42.9842 -76.0108 276° West 408 470 16,000  Level Boston Center
Fri 08:02:08 PM 43.0086 -76.3097 276° West 394 453 16,000  Level Cleveland Center
Fri 08:03:08 PM 43.0225 -76.4622 277° West 400 460 16,000 -50 Level Cleveland Center
Fri 08:04:08 PM 43.0361 -76.6119 277° West 407 468 15,900 -545 Descending Cleveland Center
Fri 08:05:09 PM 43.0469 -76.7478 276° West 407 468 14,900 -1,434 Descending Cleveland Center
Fri 08:06:01 PM 43.0578 -76.8861 276° West 385 443 13,200 -2,230 Descending Cleveland Center
Fri 08:07:02 PM 43.0367 -77.0183 258° West 322 371 10,700 -1,969 Descending Cleveland Center
Fri 08:08:09 PM 43.0131 -77.1303 254° West 338 389 9,000 -1,670 Descending Cleveland Center
Fri 08:08:57 PM 43.0011 -77.2161 259° West 261 300 7,500 -1,667 Descending Cleveland Center
Fri 08:09:57 PM 42.9936 -77.3217 264° West 264 304 6,000 -744 Descending Cleveland Center
Fri 08:10:58 PM 42.9839 -77.4214 262° West 255 293 6,000 -636 Level Cleveland Center
Fri 08:12:09 PM 42.9886 -77.5150 274° West 253 291 4,600 -1,339 Descending Cleveland Center
Fri 08:12:59 PM 42.9928 -77.5942 274° West 224 258 3,300 -1,135 Descending Cleveland Center
Fri 08:14:00 PM 43.0011 -77.6819 277° West 215 247 2,500 -375 Descending Cleveland Center
Fri 08:15:07 PM 43.0336 -77.7344 310° West 177 204 2,500 -520 Level Cleveland Center
Fri 08:16:07 PM 43.0750 -77.7183 16° North 135 155 1,400 -1,100 Descending Cleveland Center

Login

Don't have an account? Register now (free) for customized features, flight alerts, and more!